This is the latest recevied weather packets stored in our database for station/object CT2IRJ-11. If no packets are shown the sender has not sent any weather packets the latest 10 day(s).
| Time | Temp. | Humidity | Pressure | Rain* | Wind** | Luminosity | Snow |
|---|---|---|---|---|---|---|---|
| 1777982309 | 19.44° C | 54% | 1016.9 hPa | 0 mm | - | 342 W/m² | - |
| 1777982010 | 19.44° C | 55% | 1016.9 hPa | 0 mm | - | 235 W/m² | - |
| 1777981710 | 19.44° C | 55% | 1016.9 hPa | 0 mm | - | 306 W/m² | - |
| 1777981410 | 19.44° C | 55% | 1016.9 hPa | 0 mm | - | 232 W/m² | - |
| 1777981110 | 20.56° C | 52% | 1016.9 hPa | 0 mm | - | 187 W/m² | - |
| 1777980810 | 21.11° C | 50% | 1016.9 hPa | 0 mm | - | 329 W/m² | - |
| 1777980509 | 21.67° C | 48% | 1016.9 hPa | 0 mm | - | 535 W/m² | - |
| 1777980210 | 21.11° C | 48% | 1016.9 hPa | 0 mm | - | 810 W/m² | - |
| 1777979909 | 21.11° C | 49% | 1017.3 hPa | 0 mm | - | 734 W/m² | - |
| 1777979609 | 21.11° C | 52% | 1017.3 hPa | 0 mm | - | 713 W/m² | - |
| 1777979311 | 20.56° C | 54% | 1017.3 hPa | 0 mm | - | 694 W/m² | - |
| 1777979010 | 20.56° C | 53% | 1017.3 hPa | 0 mm | - | 682 W/m² | - |
| 1777978710 | 20° C | 56% | 1017.6 hPa | 0 mm | - | 651 W/m² | - |
| 1777978410 | 18.33° C | 59% | 1017.3 hPa | 0 mm | - | 700 W/m² | - |
| 1777978110 | 18.33° C | 59% | 1017.3 hPa | 0 mm | - | 252 W/m² | - |
| 1777977809 | 17.78° C | 60% | 1017.3 hPa | 0 mm | - | 388 W/m² | - |
| 1777977510 | 17.22° C | 62% | 1017.6 hPa | 0 mm | - | 193 W/m² | - |
| 1777977210 | 17.78° C | 62% | 1017.3 hPa | 0 mm | - | 177 W/m² | - |
| 1777976909 | 18.33° C | 60% | 1017.3 hPa | 0 mm | - | 202 W/m² | - |
| 1777976610 | 17.78° C | 63% | 1017.3 hPa | 0 mm | - | 883 W/m² | - |
| 1777976311 | 17.22° C | 64% | 1017.3 hPa | 0 mm | - | 176 W/m² | - |
| 1777976009 | 17.22° C | 63% | 1017.3 hPa | 0 mm | - | 180 W/m² | - |
| 1777975710 | 17.22° C | 64% | 1017.3 hPa | 0 mm | - | 569 W/m² | - |
| 1777975409 | 17.78° C | 63% | 1017.3 hPa | 0 mm | - | 186 W/m² | - |
| 1777975110 | 19.44° C | 60% | 1017.3 hPa | 0 mm | - | 190 W/m² | - |
* Rain latest hour (hover to see other rain measurements)
** Current wind speed in m/s (hover to see current wind gust speed)